sensor_id;sensor_type;location;lat;lon;timestamp;P1;durP1;ratioP1;P2;durP2;ratioP2
77466;SDS011;66564;42.482;25.548;2024-03-07T00:00:41;36.58;;;16.35;;
77466;SDS011;66564;42.482;25.548;2024-03-07T00:03:07;32.20;;;15.07;;
77466;SDS011;66564;42.482;25.548;2024-03-07T00:05:33;35.25;;;15.73;;
77466;SDS011;66564;42.482;25.548;2024-03-07T00:07:58;32.22;;;15.77;;
77466;SDS011;66564;42.482;25.548;2024-03-07T00:10:24;34.83;;;16.45;;
77466;SDS011;66564;42.482;25.548;2024-03-07T00:12:49;44.72;;;17.75;;
77466;SDS011;66564;42.482;25.548;2024-03-07T00:15:15;32.05;;;15.18;;
77466;SDS011;66564;42.482;25.548;2024-03-07T00:17:41;30.08;;;14.95;;
77466;SDS011;66564;42.482;25.548;2024-03-07T00:20:07;30.40;;;15.85;;
77466;SDS011;66564;42.482;25.548;2024-03-07T00:22:39;33.38;;;15.68;;
77466;SDS011;66564;42.482;25.548;2024-03-07T00:25:08;35.70;;;16.60;;
77466;SDS011;66564;42.482;25.548;2024-03-07T00:27:37;32.67;;;15.50;;
77466;SDS011;66564;42.482;25.548;2024-03-07T00:30:03;29.45;;;13.40;;
77466;SDS011;66564;42.482;25.548;2024-03-07T00:32:30;30.75;;;15.43;;
77466;SDS011;66564;42.482;25.548;2024-03-07T00:35:01;25.40;;;14.73;;
77466;SDS011;66564;42.482;25.548;2024-03-07T00:37:30;30.27;;;15.20;;
77466;SDS011;66564;42.482;25.548;2024-03-07T00:39:58;30.55;;;15.80;;
77466;SDS011;66564;42.482;25.548;2024-03-07T00:42:23;28.90;;;14.85;;
77466;SDS011;66564;42.482;25.548;2024-03-07T00:44:52;33.70;;;16.75;;
77466;SDS011;66564;42.482;25.548;2024-03-07T00:47:20;33.75;;;17.92;;
77466;SDS011;66564;42.482;25.548;2024-03-07T00:49:46;30.05;;;14.30;;
77466;SDS011;66564;42.482;25.548;2024-03-07T00:52:13;29.55;;;14.20;;
77466;SDS011;66564;42.482;25.548;2024-03-07T00:54:43;27.77;;;14.20;;
77466;SDS011;66564;42.482;25.548;2024-03-07T00:57:11;30.35;;;14.88;;
77466;SDS011;66564;42.482;25.548;2024-03-07T00:59:37;32.15;;;14.90;;
77466;SDS011;66564;42.482;25.548;2024-03-07T01:02:02;31.63;;;14.05;;
77466;SDS011;66564;42.482;25.548;2024-03-07T01:04:31;28.10;;;14.50;;
77466;SDS011;66564;42.482;25.548;2024-03-07T01:06:58;32.83;;;16.13;;
77466;SDS011;66564;42.482;25.548;2024-03-07T01:09:24;32.67;;;13.95;;
77466;SDS011;66564;42.482;25.548;2024-03-07T01:11:53;34.72;;;14.65;;
77466;SDS011;66564;42.482;25.548;2024-03-07T01:14:20;30.70;;;15.02;;
77466;SDS011;66564;42.482;25.548;2024-03-07T01:16:46;30.75;;;14.55;;
77466;SDS011;66564;42.482;25.548;2024-03-07T01:19:14;32.60;;;13.63;;
77466;SDS011;66564;42.482;25.548;2024-03-07T01:21:40;28.77;;;14.93;;
77466;SDS011;66564;42.482;25.548;2024-03-07T01:24:08;28.20;;;14.18;;
77466;SDS011;66564;42.482;25.548;2024-03-07T01:26:34;27.70;;;14.15;;
77466;SDS011;66564;42.482;25.548;2024-03-07T01:29:00;28.38;;;14.23;;
77466;SDS011;66564;42.482;25.548;2024-03-07T01:31:28;24.35;;;14.23;;
77466;SDS011;66564;42.482;25.548;2024-03-07T01:33:54;36.50;;;16.20;;
77466;SDS011;66564;42.482;25.548;2024-03-07T01:36:19;29.83;;;14.40;;
77466;SDS011;66564;42.482;25.548;2024-03-07T01:38:47;30.15;;;16.73;;
77466;SDS011;66564;42.482;25.548;2024-03-07T01:41:13;29.08;;;15.50;;
77466;SDS011;66564;42.482;25.548;2024-03-07T01:43:39;24.33;;;12.93;;
77466;SDS011;66564;42.482;25.548;2024-03-07T01:46:05;28.92;;;14.57;;
77466;SDS011;66564;42.482;25.548;2024-03-07T01:48:30;32.83;;;13.35;;
77466;SDS011;66564;42.482;25.548;2024-03-07T01:50:56;29.02;;;13.90;;
77466;SDS011;66564;42.482;25.548;2024-03-07T01:53:27;26.17;;;13.55;;
77466;SDS011;66564;42.482;25.548;2024-03-07T01:55:54;29.20;;;13.75;;
77466;SDS011;66564;42.482;25.548;2024-03-07T01:58:19;25.77;;;13.38;;
77466;SDS011;66564;42.482;25.548;2024-03-07T02:00:52;27.17;;;13.88;;
77466;SDS011;66564;42.482;25.548;2024-03-07T02:03:18;30.60;;;14.25;;
77466;SDS011;66564;42.482;25.548;2024-03-07T02:05:44;30.08;;;12.65;;
77466;SDS011;66564;42.482;25.548;2024-03-07T02:08:10;25.50;;;13.40;;
77466;SDS011;66564;42.482;25.548;2024-03-07T02:10:39;23.30;;;12.40;;
77466;SDS011;66564;42.482;25.548;2024-03-07T02:13:06;23.95;;;13.73;;
77466;SDS011;66564;42.482;25.548;2024-03-07T02:15:31;26.20;;;13.73;;
77466;SDS011;66564;42.482;25.548;2024-03-07T02:18:00;27.45;;;13.57;;
77466;SDS011;66564;42.482;25.548;2024-03-07T02:20:26;27.27;;;14.32;;
77466;SDS011;66564;42.482;25.548;2024-03-07T02:22:53;29.20;;;14.40;;
77466;SDS011;66564;42.482;25.548;2024-03-07T02:25:22;29.67;;;13.32;;
77466;SDS011;66564;42.482;25.548;2024-03-07T02:27:50;25.08;;;13.23;;
77466;SDS011;66564;42.482;25.548;2024-03-07T02:30:18;29.55;;;13.35;;
77466;SDS011;66564;42.482;25.548;2024-03-07T02:32:45;25.05;;;12.73;;
77466;SDS011;66564;42.482;25.548;2024-03-07T02:35:19;22.05;;;12.65;;
77466;SDS011;66564;42.482;25.548;2024-03-07T02:37:45;27.63;;;13.90;;
77466;SDS011;66564;42.482;25.548;2024-03-07T02:40:14;28.55;;;13.18;;
77466;SDS011;66564;42.482;25.548;2024-03-07T02:42:42;25.05;;;12.57;;
77466;SDS011;66564;42.482;25.548;2024-03-07T02:45:08;26.73;;;12.57;;
77466;SDS011;66564;42.482;25.548;2024-03-07T02:47:35;25.05;;;15.45;;
77466;SDS011;66564;42.482;25.548;2024-03-07T02:50:03;31.95;;;13.65;;
77466;SDS011;66564;42.482;25.548;2024-03-07T02:52:29;30.25;;;13.55;;
77466;SDS011;66564;42.482;25.548;2024-03-07T02:54:54;30.25;;;14.18;;
77466;SDS011;66564;42.482;25.548;2024-03-07T02:57:28;24.25;;;12.52;;
77466;SDS011;66564;42.482;25.548;2024-03-07T02:59:56;30.20;;;14.05;;
77466;SDS011;66564;42.482;25.548;2024-03-07T03:02:22;26.52;;;13.30;;
77466;SDS011;66564;42.482;25.548;2024-03-07T03:04:48;26.05;;;12.55;;
77466;SDS011;66564;42.482;25.548;2024-03-07T03:07:16;32.20;;;14.02;;
77466;SDS011;66564;42.482;25.548;2024-03-07T03:09:42;24.77;;;12.63;;
77466;SDS011;66564;42.482;25.548;2024-03-07T03:12:11;28.70;;;15.50;;
77466;SDS011;66564;42.482;25.548;2024-03-07T03:14:37;28.27;;;12.80;;
77466;SDS011;66564;42.482;25.548;2024-03-07T03:17:02;35.95;;;14.88;;
77466;SDS011;66564;42.482;25.548;2024-03-07T03:19:28;31.55;;;14.23;;
77466;SDS011;66564;42.482;25.548;2024-03-07T03:21:53;29.05;;;12.90;;
77466;SDS011;66564;42.482;25.548;2024-03-07T03:24:24;29.55;;;13.45;;
77466;SDS011;66564;42.482;25.548;2024-03-07T03:26:50;30.55;;;13.70;;
77466;SDS011;66564;42.482;25.548;2024-03-07T03:29:16;27.75;;;12.93;;
77466;SDS011;66564;42.482;25.548;2024-03-07T03:31:43;31.23;;;13.57;;
77466;SDS011;66564;42.482;25.548;2024-03-07T03:34:08;26.95;;;14.30;;
77466;SDS011;66564;42.482;25.548;2024-03-07T03:36:35;23.92;;;13.18;;
77466;SDS011;66564;42.482;25.548;2024-03-07T03:39:00;25.45;;;13.02;;
77466;SDS011;66564;42.482;25.548;2024-03-07T03:41:26;23.48;;;12.55;;
77466;SDS011;66564;42.482;25.548;2024-03-07T03:43:55;33.03;;;14.68;;
77466;SDS011;66564;42.482;25.548;2024-03-07T03:46:20;22.67;;;12.40;;
77466;SDS011;66564;42.482;25.548;2024-03-07T03:51:19;29.55;;;12.43;;
77466;SDS011;66564;42.482;25.548;2024-03-07T03:53:46;29.17;;;12.27;;
77466;SDS011;66564;42.482;25.548;2024-03-07T03:56:12;28.15;;;12.57;;
77466;SDS011;66564;42.482;25.548;2024-03-07T03:58:39;26.45;;;12.57;;
77466;SDS011;66564;42.482;25.548;2024-03-07T04:01:05;23.45;;;13.85;;
77466;SDS011;66564;42.482;25.548;2024-03-07T04:03:33;30.73;;;14.05;;
77466;SDS011;66564;42.482;25.548;2024-03-07T04:05:58;28.42;;;13.77;;
77466;SDS011;66564;42.482;25.548;2024-03-07T04:08:29;32.60;;;14.35;;
77466;SDS011;66564;42.482;25.548;2024-03-07T04:10:57;25.88;;;12.48;;
77466;SDS011;66564;42.482;25.548;2024-03-07T04:13:25;28.50;;;12.52;;
77466;SDS011;66564;42.482;25.548;2024-03-07T04:15:51;27.50;;;13.95;;
77466;SDS011;66564;42.482;25.548;2024-03-07T04:18:16;29.83;;;14.00;;
77466;SDS011;66564;42.482;25.548;2024-03-07T04:20:41;27.10;;;12.93;;
77466;SDS011;66564;42.482;25.548;2024-03-07T04:23:09;29.77;;;14.05;;
77466;SDS011;66564;42.482;25.548;2024-03-07T04:25:34;34.70;;;14.70;;
77466;SDS011;66564;42.482;25.548;2024-03-07T04:28:00;27.52;;;12.60;;
77466;SDS011;66564;42.482;25.548;2024-03-07T04:30:28;25.50;;;12.55;;
77466;SDS011;66564;42.482;25.548;2024-03-07T04:32:54;26.27;;;13.98;;
77466;SDS011;66564;42.482;25.548;2024-03-07T04:35:23;28.58;;;13.23;;
77466;SDS011;66564;42.482;25.548;2024-03-07T04:37:49;23.52;;;12.77;;
77466;SDS011;66564;42.482;25.548;2024-03-07T04:40:15;24.33;;;13.15;;
77466;SDS011;66564;42.482;25.548;2024-03-07T04:42:50;25.58;;;13.13;;
77466;SDS011;66564;42.482;25.548;2024-03-07T04:45:15;29.65;;;14.55;;
77466;SDS011;66564;42.482;25.548;2024-03-07T04:47:42;28.95;;;12.55;;
77466;SDS011;66564;42.482;25.548;2024-03-07T04:50:09;26.90;;;13.38;;
77466;SDS011;66564;42.482;25.548;2024-03-07T04:52:36;22.45;;;11.55;;
77466;SDS011;66564;42.482;25.548;2024-03-07T04:55:08;25.15;;;12.75;;
77466;SDS011;66564;42.482;25.548;2024-03-07T05:00:06;23.63;;;11.32;;
77466;SDS011;66564;42.482;25.548;2024-03-07T05:02:32;23.23;;;12.95;;
77466;SDS011;66564;42.482;25.548;2024-03-07T05:04:58;23.83;;;12.23;;
77466;SDS011;66564;42.482;25.548;2024-03-07T05:07:24;23.27;;;12.82;;
77466;SDS011;66564;42.482;25.548;2024-03-07T05:09:49;25.65;;;12.50;;
77466;SDS011;66564;42.482;25.548;2024-03-07T05:12:15;28.20;;;13.98;;
77466;SDS011;66564;42.482;25.548;2024-03-07T05:14:40;24.15;;;12.45;;
77466;SDS011;66564;42.482;25.548;2024-03-07T05:17:06;26.25;;;12.20;;
77466;SDS011;66564;42.482;25.548;2024-03-07T05:19:33;25.50;;;12.45;;
77466;SDS011;66564;42.482;25.548;2024-03-07T05:21:59;23.73;;;12.15;;
77466;SDS011;66564;42.482;25.548;2024-03-07T05:24:25;25.92;;;12.63;;
77466;SDS011;66564;42.482;25.548;2024-03-07T05:26:50;27.20;;;12.98;;
77466;SDS011;66564;42.482;25.548;2024-03-07T05:29:18;30.20;;;14.45;;
77466;SDS011;66564;42.482;25.548;2024-03-07T05:31:47;27.70;;;12.15;;
77466;SDS011;66564;42.482;25.548;2024-03-07T05:34:13;25.73;;;11.98;;
77466;SDS011;66564;42.482;25.548;2024-03-07T05:36:44;23.90;;;12.10;;
77466;SDS011;66564;42.482;25.548;2024-03-07T05:39:13;22.40;;;11.48;;
77466;SDS011;66564;42.482;25.548;2024-03-07T05:41:41;24.52;;;12.55;;
77466;SDS011;66564;42.482;25.548;2024-03-07T05:44:07;27.25;;;12.30;;
77466;SDS011;66564;42.482;25.548;2024-03-07T05:46:34;26.60;;;11.88;;
77466;SDS011;66564;42.482;25.548;2024-03-07T05:49:13;20.70;;;11.30;;
77466;SDS011;66564;42.482;25.548;2024-03-07T05:51:42;25.55;;;12.38;;
77466;SDS011;66564;42.482;25.548;2024-03-07T05:54:09;26.50;;;11.60;;
77466;SDS011;66564;42.482;25.548;2024-03-07T05:56:38;29.75;;;12.18;;
77466;SDS011;66564;42.482;25.548;2024-03-07T05:59:04;28.30;;;12.98;;
77466;SDS011;66564;42.482;25.548;2024-03-07T06:01:39;27.73;;;12.52;;
77466;SDS011;66564;42.482;25.548;2024-03-07T06:04:06;24.17;;;13.20;;
77466;SDS011;66564;42.482;25.548;2024-03-07T06:06:32;26.08;;;12.27;;
77466;SDS011;66564;42.482;25.548;2024-03-07T06:08:59;26.65;;;13.00;;
77466;SDS011;66564;42.482;25.548;2024-03-07T06:11:36;23.65;;;11.93;;
77466;SDS011;66564;42.482;25.548;2024-03-07T06:14:04;24.65;;;12.02;;
77466;SDS011;66564;42.482;25.548;2024-03-07T06:16:31;22.30;;;12.40;;
77466;SDS011;66564;42.482;25.548;2024-03-07T06:19:02;27.67;;;12.98;;
77466;SDS011;66564;42.482;25.548;2024-03-07T06:21:28;23.58;;;11.27;;
77466;SDS011;66564;42.482;25.548;2024-03-07T06:23:57;25.02;;;12.18;;
77466;SDS011;66564;42.482;25.548;2024-03-07T06:26:29;23.52;;;12.18;;
77466;SDS011;66564;42.482;25.548;2024-03-07T06:29:24;25.02;;;11.80;;
77466;SDS011;66564;42.482;25.548;2024-03-07T06:31:51;29.33;;;12.98;;
77466;SDS011;66564;42.482;25.548;2024-03-07T06:34:21;22.58;;;12.68;;
77466;SDS011;66564;42.482;25.548;2024-03-07T06:36:47;34.25;;;12.77;;
77466;SDS011;66564;42.482;25.548;2024-03-07T06:39:12;21.77;;;11.43;;
77466;SDS011;66564;42.482;25.548;2024-03-07T06:41:41;26.73;;;11.65;;
77466;SDS011;66564;42.482;25.548;2024-03-07T06:44:07;22.67;;;12.38;;
77466;SDS011;66564;42.482;25.548;2024-03-07T06:46:35;24.58;;;13.32;;
77466;SDS011;66564;42.482;25.548;2024-03-07T06:49:03;36.22;;;12.27;;
77466;SDS011;66564;42.482;25.548;2024-03-07T06:51:30;24.65;;;11.88;;
77466;SDS011;66564;42.482;25.548;2024-03-07T06:53:56;19.98;;;11.65;;
77466;SDS011;66564;42.482;25.548;2024-03-07T06:56:27;22.33;;;11.10;;
77466;SDS011;66564;42.482;25.548;2024-03-07T06:58:53;21.48;;;11.10;;
77466;SDS011;66564;42.482;25.548;2024-03-07T07:01:21;23.75;;;10.75;;
77466;SDS011;66564;42.482;25.548;2024-03-07T07:03:47;22.58;;;10.88;;
77466;SDS011;66564;42.482;25.548;2024-03-07T07:06:12;21.73;;;11.63;;
77466;SDS011;66564;42.482;25.548;2024-03-07T07:08:41;21.38;;;11.23;;
77466;SDS011;66564;42.482;25.548;2024-03-07T07:11:07;23.63;;;10.80;;
77466;SDS011;66564;42.482;25.548;2024-03-07T07:13:32;22.13;;;11.77;;
77466;SDS011;66564;42.482;25.548;2024-03-07T07:15:58;22.33;;;10.75;;
77466;SDS011;66564;42.482;25.548;2024-03-07T07:18:26;26.30;;;11.30;;
77466;SDS011;66564;42.482;25.548;2024-03-07T07:20:51;23.13;;;12.65;;
77466;SDS011;66564;42.482;25.548;2024-03-07T07:23:23;26.58;;;13.15;;
77466;SDS011;66564;42.482;25.548;2024-03-07T07:25:50;23.45;;;11.95;;
77466;SDS011;66564;42.482;25.548;2024-03-07T07:28:16;26.15;;;12.40;;
77466;SDS011;66564;42.482;25.548;2024-03-07T07:30:41;26.90;;;11.60;;
77466;SDS011;66564;42.482;25.548;2024-03-07T07:33:07;26.60;;;13.27;;
77466;SDS011;66564;42.482;25.548;2024-03-07T07:35:33;29.05;;;14.48;;
77466;SDS011;66564;42.482;25.548;2024-03-07T07:37:59;22.92;;;12.23;;
77466;SDS011;66564;42.482;25.548;2024-03-07T07:40:28;24.88;;;12.93;;
77466;SDS011;66564;42.482;25.548;2024-03-07T07:42:56;29.40;;;13.85;;
77466;SDS011;66564;42.482;25.548;2024-03-07T07:45:22;35.40;;;15.20;;
77466;SDS011;66564;42.482;25.548;2024-03-07T07:47:48;24.17;;;14.25;;
77466;SDS011;66564;42.482;25.548;2024-03-07T07:50:18;27.33;;;14.15;;
77466;SDS011;66564;42.482;25.548;2024-03-07T07:55:34;28.13;;;13.35;;
77466;SDS011;66564;42.482;25.548;2024-03-07T07:57:59;29.33;;;14.77;;
77466;SDS011;66564;42.482;25.548;2024-03-07T08:00:30;26.15;;;13.85;;
77466;SDS011;66564;42.482;25.548;2024-03-07T08:03:00;28.02;;;12.90;;
77466;SDS011;66564;42.482;25.548;2024-03-07T08:05:33;29.38;;;13.32;;
77466;SDS011;66564;42.482;25.548;2024-03-07T08:08:04;27.73;;;13.50;;
77466;SDS011;66564;42.482;25.548;2024-03-07T08:10:32;27.27;;;13.27;;
77466;SDS011;66564;42.482;25.548;2024-03-07T08:12:59;27.27;;;13.98;;
77466;SDS011;66564;42.482;25.548;2024-03-07T08:15:26;28.05;;;14.55;;
77466;SDS011;66564;42.482;25.548;2024-03-07T08:17:53;26.38;;;13.05;;
77466;SDS011;66564;42.482;25.548;2024-03-07T08:20:20;23.77;;;12.20;;
77466;SDS011;66564;42.482;25.548;2024-03-07T08:22:47;26.45;;;12.13;;
77466;SDS011;66564;42.482;25.548;2024-03-07T08:25:16;35.28;;;15.07;;
77466;SDS011;66564;42.482;25.548;2024-03-07T08:27:44;31.55;;;14.15;;
77466;SDS011;66564;42.482;25.548;2024-03-07T08:30:11;27.05;;;13.85;;
77466;SDS011;66564;42.482;25.548;2024-03-07T08:35:06;28.25;;;12.85;;
77466;SDS011;66564;42.482;25.548;2024-03-07T08:37:38;28.70;;;13.50;;
77466;SDS011;66564;42.482;25.548;2024-03-07T08:40:04;26.50;;;13.55;;
77466;SDS011;66564;42.482;25.548;2024-03-07T08:42:32;28.67;;;13.95;;
77466;SDS011;66564;42.482;25.548;2024-03-07T08:44:59;23.83;;;13.25;;
77466;SDS011;66564;42.482;25.548;2024-03-07T08:47:28;25.52;;;11.85;;
77466;SDS011;66564;42.482;25.548;2024-03-07T08:49:54;27.23;;;13.90;;
77466;SDS011;66564;42.482;25.548;2024-03-07T08:52:22;35.05;;;15.43;;
77466;SDS011;66564;42.482;25.548;2024-03-07T08:54:48;27.15;;;14.02;;
77466;SDS011;66564;42.482;25.548;2024-03-07T08:57:13;27.52;;;13.30;;
77466;SDS011;66564;42.482;25.548;2024-03-07T08:59:42;25.58;;;12.65;;
77466;SDS011;66564;42.482;25.548;2024-03-07T09:02:11;29.88;;;13.60;;
77466;SDS011;66564;42.482;25.548;2024-03-07T09:04:39;25.35;;;13.32;;
77466;SDS011;66564;42.482;25.548;2024-03-07T09:07:05;30.15;;;13.60;;
77466;SDS011;66564;42.482;25.548;2024-03-07T09:09:32;28.88;;;14.55;;
77466;SDS011;66564;42.482;25.548;2024-03-07T09:12:01;29.25;;;15.25;;
77466;SDS011;66564;42.482;25.548;2024-03-07T09:14:28;32.65;;;15.05;;
77466;SDS011;66564;42.482;25.548;2024-03-07T09:16:54;30.65;;;14.13;;
77466;SDS011;66564;42.482;25.548;2024-03-07T09:19:20;32.95;;;15.65;;
77466;SDS011;66564;42.482;25.548;2024-03-07T09:21:50;28.70;;;13.68;;
77466;SDS011;66564;42.482;25.548;2024-03-07T09:24:18;29.00;;;15.10;;
77466;SDS011;66564;42.482;25.548;2024-03-07T09:26:51;31.30;;;13.88;;
77466;SDS011;66564;42.482;25.548;2024-03-07T09:29:21;24.42;;;13.88;;
77466;SDS011;66564;42.482;25.548;2024-03-07T09:31:50;27.90;;;13.82;;
77466;SDS011;66564;42.482;25.548;2024-03-07T09:34:20;26.08;;;13.43;;
77466;SDS011;66564;42.482;25.548;2024-03-07T09:36:46;26.98;;;13.35;;
77466;SDS011;66564;42.482;25.548;2024-03-07T09:39:12;27.90;;;14.60;;
77466;SDS011;66564;42.482;25.548;2024-03-07T09:41:38;24.15;;;13.23;;
77466;SDS011;66564;42.482;25.548;2024-03-07T09:44:08;29.27;;;14.57;;
77466;SDS011;66564;42.482;25.548;2024-03-07T09:46:40;29.17;;;14.55;;
77466;SDS011;66564;42.482;25.548;2024-03-07T09:49:06;25.77;;;13.48;;
77466;SDS011;66564;42.482;25.548;2024-03-07T09:51:34;28.70;;;14.68;;
77466;SDS011;66564;42.482;25.548;2024-03-07T09:54:00;29.02;;;13.60;;
77466;SDS011;66564;42.482;25.548;2024-03-07T09:56:31;25.98;;;13.00;;
77466;SDS011;66564;42.482;25.548;2024-03-07T09:58:57;28.70;;;13.02;;
77466;SDS011;66564;42.482;25.548;2024-03-07T10:01:27;29.63;;;13.45;;
77466;SDS011;66564;42.482;25.548;2024-03-07T10:04:00;27.27;;;13.18;;
77466;SDS011;66564;42.482;25.548;2024-03-07T10:06:30;28.27;;;13.85;;
77466;SDS011;66564;42.482;25.548;2024-03-07T10:08:59;29.77;;;14.57;;
77466;SDS011;66564;42.482;25.548;2024-03-07T10:11:29;26.52;;;13.00;;
77466;SDS011;66564;42.482;25.548;2024-03-07T10:13:54;33.03;;;15.18;;
77466;SDS011;66564;42.482;25.548;2024-03-07T10:16:20;26.70;;;13.02;;
77466;SDS011;66564;42.482;25.548;2024-03-07T10:18:49;28.17;;;13.75;;
77466;SDS011;66564;42.482;25.548;2024-03-07T10:21:18;32.22;;;13.38;;
77466;SDS011;66564;42.482;25.548;2024-03-07T10:23:49;27.73;;;14.30;;
77466;SDS011;66564;42.482;25.548;2024-03-07T10:26:18;26.75;;;13.85;;
77466;SDS011;66564;42.482;25.548;2024-03-07T10:28:45;27.45;;;14.00;;
77466;SDS011;66564;42.482;25.548;2024-03-07T10:31:10;33.25;;;15.65;;
77466;SDS011;66564;42.482;25.548;2024-03-07T10:33:40;28.05;;;13.93;;
77466;SDS011;66564;42.482;25.548;2024-03-07T10:36:09;26.70;;;12.85;;
77466;SDS011;66564;42.482;25.548;2024-03-07T10:38:40;29.90;;;13.32;;
77466;SDS011;66564;42.482;25.548;2024-03-07T10:41:05;28.35;;;13.82;;
77466;SDS011;66564;42.482;25.548;2024-03-07T10:43:37;28.23;;;13.77;;
77466;SDS011;66564;42.482;25.548;2024-03-07T10:46:10;30.88;;;14.25;;
77466;SDS011;66564;42.482;25.548;2024-03-07T10:48:37;26.52;;;13.52;;
77466;SDS011;66564;42.482;25.548;2024-03-07T10:59:25;27.25;;;13.55;;
77466;SDS011;66564;42.482;25.548;2024-03-07T11:04:49;25.55;;;13.48;;
77466;SDS011;66564;42.482;25.548;2024-03-07T11:07:17;29.67;;;14.13;;
77466;SDS011;66564;42.482;25.548;2024-03-07T11:09:51;31.30;;;14.30;;
77466;SDS011;66564;42.482;25.548;2024-03-07T11:12:23;27.25;;;13.73;;
77466;SDS011;66564;42.482;25.548;2024-03-07T11:14:53;28.33;;;14.20;;
77466;SDS011;66564;42.482;25.548;2024-03-07T11:17:22;29.25;;;15.27;;
77466;SDS011;66564;42.482;25.548;2024-03-07T11:22:49;29.05;;;14.80;;
77466;SDS011;66564;42.482;25.548;2024-03-07T11:25:20;29.05;;;15.10;;
77466;SDS011;66564;42.482;25.548;2024-03-07T11:28:00;35.35;;;16.05;;
77466;SDS011;66564;42.482;25.548;2024-03-07T11:30:27;32.75;;;15.18;;
77466;SDS011;66564;42.482;25.548;2024-03-07T11:32:54;33.05;;;15.10;;
77466;SDS011;66564;42.482;25.548;2024-03-07T11:35:20;30.60;;;15.90;;
77466;SDS011;66564;42.482;25.548;2024-03-07T11:38:09;27.17;;;13.95;;
77466;SDS011;66564;42.482;25.548;2024-03-07T11:43:03;34.05;;;15.50;;
77466;SDS011;66564;42.482;25.548;2024-03-07T11:45:32;26.55;;;14.48;;
77466;SDS011;66564;42.482;25.548;2024-03-07T11:48:03;26.40;;;14.50;;
77466;SDS011;66564;42.482;25.548;2024-03-07T11:50:33;27.80;;;14.57;;
77466;SDS011;66564;42.482;25.548;2024-03-07T11:53:02;28.27;;;14.98;;
77466;SDS011;66564;42.482;25.548;2024-03-07T11:55:38;26.60;;;13.88;;
77466;SDS011;66564;42.482;25.548;2024-03-07T11:58:17;31.20;;;15.18;;
77466;SDS011;66564;42.482;25.548;2024-03-07T12:00:48;28.35;;;14.45;;
77466;SDS011;66564;42.482;25.548;2024-03-07T12:03:18;28.77;;;16.02;;
77466;SDS011;66564;42.482;25.548;2024-03-07T12:05:49;30.48;;;15.80;;
77466;SDS011;66564;42.482;25.548;2024-03-07T12:08:18;35.60;;;14.90;;
77466;SDS011;66564;42.482;25.548;2024-03-07T12:10:47;32.65;;;16.90;;
77466;SDS011;66564;42.482;25.548;2024-03-07T12:13:17;31.55;;;16.08;;
77466;SDS011;66564;42.482;25.548;2024-03-07T12:15:44;28.80;;;15.63;;
77466;SDS011;66564;42.482;25.548;2024-03-07T12:18:10;29.75;;;15.43;;
77466;SDS011;66564;42.482;25.548;2024-03-07T12:20:40;30.35;;;15.65;;
77466;SDS011;66564;42.482;25.548;2024-03-07T12:23:07;32.13;;;16.67;;
77466;SDS011;66564;42.482;25.548;2024-03-07T12:25:36;36.05;;;17.33;;
77466;SDS011;66564;42.482;25.548;2024-03-07T12:28:03;37.13;;;16.27;;
77466;SDS011;66564;42.482;25.548;2024-03-07T12:30:37;26.48;;;14.95;;
77466;SDS011;66564;42.482;25.548;2024-03-07T12:33:16;29.95;;;15.15;;
77466;SDS011;66564;42.482;25.548;2024-03-07T12:35:43;34.38;;;16.75;;
77466;SDS011;66564;42.482;25.548;2024-03-07T12:38:13;29.73;;;17.17;;
77466;SDS011;66564;42.482;25.548;2024-03-07T12:40:41;34.13;;;16.23;;
77466;SDS011;66564;42.482;25.548;2024-03-07T12:43:20;30.73;;;15.52;;
77466;SDS011;66564;42.482;25.548;2024-03-07T12:45:51;32.38;;;15.65;;
77466;SDS011;66564;42.482;25.548;2024-03-07T12:48:20;32.33;;;16.73;;
77466;SDS011;66564;42.482;25.548;2024-03-07T12:50:52;39.78;;;15.63;;
77466;SDS011;66564;42.482;25.548;2024-03-07T12:53:22;32.28;;;16.02;;
77466;SDS011;66564;42.482;25.548;2024-03-07T12:55:50;32.47;;;16.33;;
77466;SDS011;66564;42.482;25.548;2024-03-07T12:58:17;26.70;;;14.15;;
77466;SDS011;66564;42.482;25.548;2024-03-07T13:00:48;23.48;;;12.57;;
77466;SDS011;66564;42.482;25.548;2024-03-07T13:03:13;25.10;;;13.90;;
77466;SDS011;66564;42.482;25.548;2024-03-07T13:05:41;24.35;;;12.43;;
77466;SDS011;66564;42.482;25.548;2024-03-07T13:08:08;26.52;;;13.02;;
77466;SDS011;66564;42.482;25.548;2024-03-07T13:10:43;26.05;;;13.27;;
77466;SDS011;66564;42.482;25.548;2024-03-07T13:13:09;28.25;;;14.00;;
77466;SDS011;66564;42.482;25.548;2024-03-07T13:15:36;33.38;;;15.77;;
77466;SDS011;66564;42.482;25.548;2024-03-07T13:18:03;27.60;;;15.27;;
77466;SDS011;66564;42.482;25.548;2024-03-07T13:20:30;30.90;;;15.52;;
77466;SDS011;66564;42.482;25.548;2024-03-07T13:22:56;23.42;;;12.65;;
77466;SDS011;66564;42.482;25.548;2024-03-07T13:25:26;29.52;;;13.10;;
77466;SDS011;66564;42.482;25.548;2024-03-07T13:30:20;27.38;;;14.07;;
77466;SDS011;66564;42.482;25.548;2024-03-07T13:33:01;28.77;;;14.25;;
77466;SDS011;66564;42.482;25.548;2024-03-07T13:35:28;25.48;;;13.73;;
77466;SDS011;66564;42.482;25.548;2024-03-07T13:37:54;27.48;;;14.05;;
77466;SDS011;66564;42.482;25.548;2024-03-07T13:40:21;35.42;;;14.73;;
77466;SDS011;66564;42.482;25.548;2024-03-07T13:45:27;28.25;;;13.70;;
77466;SDS011;66564;42.482;25.548;2024-03-07T13:47:56;30.60;;;15.48;;
77466;SDS011;66564;42.482;25.548;2024-03-07T13:50:24;28.63;;;14.85;;
77466;SDS011;66564;42.482;25.548;2024-03-07T13:52:54;30.23;;;14.55;;
77466;SDS011;66564;42.482;25.548;2024-03-07T14:06:38;25.80;;;14.10;;
77466;SDS011;66564;42.482;25.548;2024-03-07T14:09:30;30.10;;;14.80;;
77466;SDS011;66564;42.482;25.548;2024-03-07T14:18:17;28.00;;;15.68;;
77466;SDS011;66564;42.482;25.548;2024-03-07T14:21:09;34.40;;;15.82;;
77466;SDS011;66564;42.482;25.548;2024-03-07T14:32:56;33.97;;;15.77;;
77466;SDS011;66564;42.482;25.548;2024-03-07T14:38:25;33.08;;;16.25;;
77466;SDS011;66564;42.482;25.548;2024-03-07T14:40:54;36.38;;;16.10;;
77466;SDS011;66564;42.482;25.548;2024-03-07T14:43:21;35.08;;;17.27;;
77466;SDS011;66564;42.482;25.548;2024-03-07T14:45:47;39.13;;;19.40;;
77466;SDS011;66564;42.482;25.548;2024-03-07T14:48:14;37.65;;;17.50;;
77466;SDS011;66564;42.482;25.548;2024-03-07T14:50:43;32.38;;;16.75;;
77466;SDS011;66564;42.482;25.548;2024-03-07T14:53:11;34.45;;;16.98;;
77466;SDS011;66564;42.482;25.548;2024-03-07T14:55:38;33.65;;;17.02;;
77466;SDS011;66564;42.482;25.548;2024-03-07T14:58:05;38.80;;;18.27;;
77466;SDS011;66564;42.482;25.548;2024-03-07T15:00:34;35.30;;;17.73;;
77466;SDS011;66564;42.482;25.548;2024-03-07T15:03:06;37.45;;;19.33;;
77466;SDS011;66564;42.482;25.548;2024-03-07T15:05:34;37.22;;;18.63;;
77466;SDS011;66564;42.482;25.548;2024-03-07T15:08:00;36.95;;;18.33;;
77466;SDS011;66564;42.482;25.548;2024-03-07T15:10:32;45.90;;;19.33;;
77466;SDS011;66564;42.482;25.548;2024-03-07T15:13:00;38.38;;;18.13;;
77466;SDS011;66564;42.482;25.548;2024-03-07T15:15:29;36.13;;;18.15;;